createdAt,value
2022-12-08T00:00:48.297Z,0.22
2022-12-08T00:02:50.330Z,0.06
2022-12-08T00:04:52.174Z,0.16
2022-12-08T00:06:53.873Z,0.06
2022-12-08T00:08:55.759Z,0.12
2022-12-08T00:10:57.486Z,0.04
2022-12-08T00:12:59.397Z,0.02
2022-12-08T00:15:01.460Z,0.04
2022-12-08T00:17:05.143Z,0.14
2022-12-08T00:19:06.890Z,0.08
2022-12-08T00:21:08.897Z,-0.01
2022-12-08T00:23:10.604Z,0.11
2022-12-08T00:25:12.477Z,0.06
2022-12-08T00:27:16.439Z,0.23
2022-12-08T00:29:18.590Z,0.16
2022-12-08T00:31:20.360Z,0.22
2022-12-08T00:33:22.105Z,0.26
2022-12-08T00:35:24.138Z,0.29
2022-12-08T00:37:26.004Z,0.28
2022-12-08T00:39:28.003Z,0.31
2022-12-08T00:41:29.695Z,0.03
2022-12-08T00:43:31.588Z,0.08
2022-12-08T00:45:33.364Z,0.22
2022-12-08T00:47:35.047Z,0.17
2022-12-08T00:49:36.866Z,0.00
2022-12-08T00:51:39.352Z,0.31
2022-12-08T00:53:41.031Z,0.37
2022-12-08T00:55:43.413Z,0.13
2022-12-08T00:57:45.244Z,0.38
2022-12-08T00:59:46.932Z,0.36
2022-12-08T01:01:49.344Z,0.23
2022-12-08T01:03:51.858Z,0.27
2022-12-08T01:05:53.596Z,0.32
2022-12-08T01:07:55.577Z,0.22
2022-12-08T01:09:57.761Z,0.35
2022-12-08T01:12:00.270Z,0.35
2022-12-08T01:14:02.175Z,0.28
2022-12-08T01:16:04.096Z,0.40
2022-12-08T01:18:05.845Z,0.26
2022-12-08T01:20:08.060Z,0.25
2022-12-08T01:22:09.987Z,0.49
2022-12-08T01:24:17.417Z,0.40
2022-12-08T01:26:19.977Z,0.33
2022-12-08T01:28:21.845Z,0.23
2022-12-08T01:30:23.535Z,0.28
2022-12-08T01:32:25.261Z,0.27
2022-12-08T01:34:27.230Z,0.29
2022-12-08T01:36:31.609Z,0.24
2022-12-08T01:38:33.824Z,0.15
2022-12-08T01:40:35.589Z,0.28
2022-12-08T01:42:37.293Z,0.28
2022-12-08T01:44:39.060Z,0.24
2022-12-08T01:46:43.053Z,0.21
2022-12-08T01:48:44.892Z,0.38
2022-12-08T01:50:48.643Z,0.29
2022-12-08T01:52:55.143Z,0.34
2022-12-08T01:55:02.845Z,0.02
2022-12-08T01:57:10.180Z,0.20
2022-12-08T01:59:12.535Z,0.15
2022-12-08T02:01:14.474Z,0.22
2022-12-08T02:03:27.492Z,0.22
2022-12-08T02:05:33.265Z,0.24
2022-12-08T02:07:36.247Z,0.06
2022-12-08T02:09:40.024Z,-0.09
2022-12-08T02:11:41.785Z,0.02
2022-12-08T02:13:45.960Z,0.04
2022-12-08T02:16:09.456Z,-0.12
2022-12-08T02:18:23.139Z,0.13
2022-12-08T02:20:37.985Z,0.15
2022-12-08T02:23:11.468Z,0.07
2022-12-08T02:25:24.840Z,0.17
2022-12-08T02:27:48.310Z,0.27
2022-12-08T02:30:08.203Z,0.19
2022-12-08T02:32:28.227Z,0.29
2022-12-08T02:34:39.371Z,0.03
2022-12-08T02:36:43.903Z,0.23
2022-12-08T02:39:00.679Z,0.21
2022-12-08T02:41:17.581Z,0.18
2022-12-08T02:43:28.363Z,0.07
2022-12-08T02:45:36.273Z,0.10
2022-12-08T02:47:38.511Z,0.05
2022-12-08T02:49:40.544Z,-0.13
2022-12-08T02:51:43.056Z,-0.25
2022-12-08T02:53:45.029Z,-0.34
2022-12-08T02:56:25.490Z,-0.05
2022-12-08T02:58:35.801Z,-0.15
2022-12-08T03:00:48.916Z,-0.21
2022-12-08T03:03:16.375Z,-0.13
2022-12-08T03:05:28.288Z,-0.16
2022-12-08T03:07:38.798Z,-0.20
2022-12-08T03:09:56.335Z,-0.23
2022-12-08T03:12:23.880Z,-0.45
2022-12-08T03:14:26.279Z,-0.25
2022-12-08T03:16:30.211Z,-0.14
2022-12-08T03:18:35.707Z,-0.25
2022-12-08T03:20:40.518Z,-0.03
2022-12-08T03:22:44.572Z,-0.10
2022-12-08T03:24:47.037Z,-0.12
2022-12-08T03:26:51.929Z,-0.06
2022-12-08T03:28:53.682Z,-0.10
2022-12-08T03:30:59.597Z,-0.04
2022-12-08T03:33:07.138Z,-0.29
2022-12-08T03:35:14.557Z,-0.10
2022-12-08T03:37:16.486Z,-0.21
2022-12-08T03:39:18.512Z,-0.09
2022-12-08T03:41:22.414Z,-0.04
2022-12-08T03:43:24.378Z,-0.18
2022-12-08T03:45:26.257Z,-0.17
2022-12-08T03:47:27.949Z,-0.04
2022-12-08T03:49:30.008Z,-0.20
2022-12-08T03:51:31.847Z,0.04
2022-12-08T03:53:33.554Z,-0.11
2022-12-08T03:55:35.333Z,0.00
2022-12-08T03:57:37.267Z,0.04
2022-12-08T03:59:38.969Z,0.07
2022-12-08T04:01:40.963Z,0.14
2022-12-08T04:03:42.662Z,-0.05
2022-12-08T04:05:44.364Z,0.09
2022-12-08T04:07:46.384Z,0.16
2022-12-08T04:09:48.115Z,-0.06
2022-12-08T04:11:49.888Z,-0.04
2022-12-08T04:13:51.940Z,-0.05
2022-12-08T04:15:53.866Z,0.19
2022-12-08T04:17:55.604Z,0.13
2022-12-08T04:19:57.774Z,0.11
2022-12-08T04:21:59.488Z,0.18
2022-12-08T04:24:01.677Z,0.02
2022-12-08T04:26:03.952Z,0.21
2022-12-08T04:28:06.281Z,0.16
2022-12-08T04:30:08.637Z,0.30
2022-12-08T04:32:10.537Z,0.14
2022-12-08T04:34:12.216Z,0.22
2022-12-08T04:36:13.892Z,0.12
2022-12-08T04:38:17.725Z,0.00
2022-12-08T04:40:19.710Z,0.01
2022-12-08T04:42:21.392Z,0.32
2022-12-08T04:44:23.474Z,0.44
2022-12-08T04:46:25.392Z,0.11
2022-12-08T04:48:27.200Z,0.05
2022-12-08T04:50:29.145Z,0.17
2022-12-08T04:52:30.878Z,0.10
2022-12-08T04:54:32.614Z,0.11
2022-12-08T04:56:34.792Z,0.03
2022-12-08T04:58:36.476Z,-0.05
2022-12-08T05:00:38.168Z,0.19
2022-12-08T05:02:40.706Z,0.09
2022-12-08T05:04:42.602Z,0.09
2022-12-08T05:06:44.266Z,0.23
2022-12-08T05:08:46.363Z,0.12
2022-12-08T05:10:48.083Z,-0.02
2022-12-08T05:12:49.817Z,0.10
2022-12-08T05:14:51.765Z,0.03
2022-12-08T05:16:53.553Z,0.14
2022-12-08T05:18:55.246Z,0.07
2022-12-08T05:20:57.077Z,0.13
2022-12-08T05:22:58.748Z,0.13
2022-12-08T05:25:00.496Z,0.23
2022-12-08T05:27:02.364Z,0.20
2022-12-08T05:29:04.234Z,0.28
2022-12-08T05:31:06.084Z,0.17
2022-12-08T05:33:07.926Z,0.18
2022-12-08T05:35:10.033Z,0.22
2022-12-08T05:37:11.736Z,0.05
2022-12-08T05:39:14.259Z,0.08
2022-12-08T05:41:19.744Z,0.16
2022-12-08T05:43:21.499Z,0.12
2022-12-08T05:45:23.904Z,-0.08
2022-12-08T05:47:26.182Z,-0.11
2022-12-08T05:49:27.867Z,-0.08
2022-12-08T05:51:30.030Z,-0.25
2022-12-08T05:53:31.730Z,-0.36
2022-12-08T05:55:33.416Z,-0.35
2022-12-08T05:57:35.914Z,-0.39
2022-12-08T05:59:38.538Z,-0.52
2022-12-08T06:01:40.298Z,-0.23
2022-12-08T06:03:42.287Z,-0.45
2022-12-08T06:05:45.889Z,-0.40
2022-12-08T06:07:47.617Z,-0.33
2022-12-08T06:09:49.488Z,-0.22
2022-12-08T06:11:51.182Z,-0.06
2022-12-08T06:13:53.027Z,0.02
2022-12-08T06:15:55.200Z,-0.08
2022-12-08T06:17:56.926Z,-0.21
2022-12-08T06:19:58.595Z,0.07
2022-12-08T06:22:00.453Z,-0.13
2022-12-08T06:24:02.196Z,-0.01
2022-12-08T06:26:06.363Z,-0.05
2022-12-08T06:28:08.235Z,0.02
2022-12-08T06:30:10.354Z,0.07
2022-12-08T06:32:12.122Z,0.18
2022-12-08T06:34:14.095Z,0.27
2022-12-08T06:36:18.024Z,0.22
2022-12-08T06:38:19.700Z,0.28
2022-12-08T06:40:21.667Z,0.32
2022-12-08T06:42:23.354Z,0.27
2022-12-08T06:44:25.031Z,0.49
2022-12-08T06:46:27.180Z,0.34
2022-12-08T06:48:28.917Z,0.13
2022-12-08T06:50:30.594Z,0.17
2022-12-08T06:52:32.515Z,0.28
2022-12-08T06:54:34.282Z,0.37
2022-12-08T06:56:35.946Z,0.36
2022-12-08T06:58:38.451Z,0.38
2022-12-08T07:00:41.739Z,0.36
2022-12-08T07:02:43.471Z,0.36
2022-12-08T07:04:45.416Z,0.21
2022-12-08T07:06:47.140Z,0.24
2022-12-08T07:08:48.842Z,0.26
2022-12-08T07:10:50.813Z,0.29
2022-12-08T07:12:52.537Z,0.10
2022-12-08T07:14:54.246Z,0.12
2022-12-08T07:16:56.267Z,0.02
2022-12-08T07:18:58.057Z,0.05
2022-12-08T07:21:07.280Z,0.07
2022-12-08T07:23:09.383Z,0.18
2022-12-08T07:25:11.082Z,0.17
2022-12-08T07:27:12.824Z,0.24
2022-12-08T07:29:14.881Z,0.10
2022-12-08T07:31:22.279Z,0.10
2022-12-08T07:33:24.023Z,0.19
2022-12-08T07:35:25.951Z,0.30
2022-12-08T07:37:27.661Z,0.16
2022-12-08T07:39:29.323Z,0.29
2022-12-08T07:41:31.408Z,0.30
2022-12-08T07:43:33.118Z,0.45
2022-12-08T07:45:34.790Z,0.45
2022-12-08T07:47:36.866Z,0.58
2022-12-08T07:49:38.612Z,0.93
2022-12-08T07:51:40.341Z,0.77
2022-12-08T07:53:48.388Z,0.75
2022-12-08T07:55:53.492Z,1.05
2022-12-08T07:57:55.290Z,0.87
2022-12-08T07:59:57.364Z,0.68
2022-12-08T08:02:22.234Z,0.85
2022-12-08T08:04:20.762Z,1.01
2022-12-08T08:06:23.166Z,0.95
2022-12-08T08:08:24.936Z,1.19
2022-12-08T08:10:26.757Z,0.93
2022-12-08T08:12:31.641Z,0.97
2022-12-08T08:14:34.172Z,0.94
2022-12-08T08:16:38.626Z,0.90
2022-12-08T08:18:41.572Z,0.74
2022-12-08T08:20:43.256Z,0.70
2022-12-08T08:22:51.494Z,0.81
2022-12-08T08:24:54.299Z,0.99
2022-12-08T08:26:56.012Z,0.89
2022-12-08T08:28:57.680Z,0.62
2022-12-08T08:31:00.732Z,0.72
2022-12-08T08:33:02.462Z,1.06
2022-12-08T08:35:04.962Z,1.03
2022-12-08T08:37:06.977Z,0.76
2022-12-08T08:39:08.672Z,0.88
2022-12-08T08:41:11.779Z,0.92
2022-12-08T08:43:13.839Z,0.75
2022-12-08T08:45:15.552Z,0.82
2022-12-08T08:47:17.264Z,0.98
2022-12-08T08:49:19.250Z,1.05
2022-12-08T08:51:20.952Z,1.01
2022-12-08T08:53:23.300Z,0.98
2022-12-08T08:55:25.092Z,1.16
2022-12-08T08:57:26.785Z,1.27
2022-12-08T08:59:28.885Z,1.49
2022-12-08T09:01:30.862Z,1.51
2022-12-08T09:03:32.643Z,1.58
2022-12-08T09:05:34.450Z,1.60
2022-12-08T09:07:36.484Z,1.49
2022-12-08T09:09:38.777Z,1.51
2022-12-08T09:11:40.686Z,1.67
2022-12-08T09:13:42.896Z,1.48
2022-12-08T09:15:44.649Z,1.62
2022-12-08T09:17:46.423Z,1.70
2022-12-08T09:19:48.406Z,1.62
2022-12-08T09:21:50.105Z,1.83
2022-12-08T09:23:55.256Z,1.87
2022-12-08T09:25:57.495Z,1.74
2022-12-08T09:27:59.183Z,1.78
2022-12-08T09:30:01.072Z,1.93
2022-12-08T09:32:03.240Z,1.95
2022-12-08T09:34:05.518Z,2.18
2022-12-08T09:36:07.761Z,2.11
2022-12-08T09:38:09.704Z,2.19
2022-12-08T09:40:17.400Z,2.25
2022-12-08T09:42:40.852Z,2.29
2022-12-08T09:45:09.228Z,2.30
2022-12-08T09:47:30.614Z,2.24
2022-12-08T09:49:53.152Z,2.26
2022-12-08T09:51:55.390Z,2.31
2022-12-08T09:54:03.395Z,2.44
2022-12-08T09:56:17.599Z,2.74
2022-12-08T09:58:31.447Z,2.65
2022-12-08T10:00:34.270Z,2.76
2022-12-08T10:02:36.117Z,2.68
2022-12-08T10:04:38.842Z,2.67
2022-12-08T10:06:43.520Z,2.83
2022-12-08T10:09:17.212Z,2.72
2022-12-08T10:11:31.336Z,2.51
2022-12-08T10:13:44.727Z,2.92
2022-12-08T10:16:25.412Z,2.66
2022-12-08T10:18:33.994Z,2.66
2022-12-08T10:20:41.903Z,2.65
2022-12-08T10:22:46.214Z,2.53
2022-12-08T10:24:53.929Z,2.70
2022-12-08T10:26:56.303Z,2.65
2022-12-08T10:28:58.103Z,2.57
2022-12-08T10:31:00.255Z,2.91
2022-12-08T10:33:02.160Z,2.97
2022-12-08T10:35:07.831Z,2.82
2022-12-08T10:37:10.467Z,2.56
2022-12-08T10:39:29.869Z,2.49
2022-12-08T10:41:31.574Z,2.34
2022-12-08T10:43:34.662Z,2.03
2022-12-08T10:45:40.880Z,2.19
2022-12-08T10:47:45.359Z,2.07
2022-12-08T10:49:47.827Z,2.22
2022-12-08T10:51:49.748Z,2.09
2022-12-08T10:53:51.460Z,2.20
2022-12-08T10:56:07.084Z,2.07
2022-12-08T10:58:34.038Z,2.39
2022-12-08T11:00:39.453Z,2.20
2022-12-08T11:02:53.536Z,2.14
2022-12-08T11:04:57.830Z,2.17
2022-12-08T11:06:59.584Z,2.16
2022-12-08T11:09:04.879Z,2.14
2022-12-08T11:11:06.617Z,2.02
2022-12-08T11:13:23.638Z,2.41
2022-12-08T11:15:25.811Z,2.29
2022-12-08T11:17:29.045Z,2.29
2022-12-08T11:19:30.795Z,2.37
2022-12-08T11:21:41.518Z,2.27
2022-12-08T11:23:48.356Z,2.25
2022-12-08T11:25:51.754Z,2.20
2022-12-08T11:27:58.987Z,2.18
2022-12-08T11:30:02.237Z,2.17
2022-12-08T11:32:12.745Z,2.13
2022-12-08T11:34:27.285Z,2.18
2022-12-08T11:36:32.196Z,2.20
2022-12-08T11:38:34.504Z,2.13
2022-12-08T11:40:39.157Z,2.03
2022-12-08T11:43:06.491Z,2.31
2022-12-08T11:45:14.803Z,2.34
2022-12-08T11:47:35.398Z,2.46
2022-12-08T11:49:39.975Z,2.49
2022-12-08T11:51:50.431Z,2.67
2022-12-08T11:54:26.241Z,2.32
2022-12-08T11:56:38.239Z,2.26
2022-12-08T11:58:54.019Z,2.40
2022-12-08T12:00:55.861Z,2.58
2022-12-08T12:03:11.575Z,2.57
2022-12-08T12:06:08.609Z,2.50
2022-12-08T12:08:25.369Z,2.57
2022-12-08T12:10:48.470Z,2.52
2022-12-08T12:13:11.782Z,2.36
2022-12-08T12:15:44.511Z,2.31
2022-12-08T12:18:23.944Z,2.38
2022-12-08T12:20:33.586Z,2.34
2022-12-08T12:22:37.852Z,2.44
2022-12-08T12:24:40.265Z,2.46
2022-12-08T12:27:14.052Z,2.56
2022-12-08T12:29:21.789Z,2.54
2022-12-08T12:31:27.752Z,2.61
2022-12-08T12:33:33.183Z,2.39
2022-12-08T12:35:41.229Z,2.61
2022-12-08T12:37:43.483Z,2.62
2022-12-08T12:40:02.657Z,2.61
2022-12-08T12:42:05.259Z,2.52
2022-12-08T12:44:11.917Z,2.57
2022-12-08T12:46:53.390Z,2.61
2022-12-08T12:49:33.444Z,2.34
2022-12-08T12:51:57.927Z,2.55
2022-12-08T12:54:23.810Z,2.62
2022-12-08T12:56:50.230Z,2.56
2022-12-08T12:58:54.238Z,2.72
2022-12-08T13:01:11.370Z,2.88
2022-12-08T13:03:17.808Z,2.79
2022-12-08T13:05:26.317Z,2.76
2022-12-08T13:07:31.964Z,2.79
2022-12-08T13:09:39.343Z,2.83
2022-12-08T13:11:54.025Z,2.87
2022-12-08T13:14:05.307Z,2.85
2022-12-08T13:16:18.513Z,2.85
2022-12-08T13:18:50.231Z,2.91
2022-12-08T13:20:57.382Z,2.82
2022-12-08T13:23:13.357Z,2.82
2022-12-08T13:25:40.025Z,2.87
2022-12-08T13:27:52.885Z,2.75
2022-12-08T13:30:41.194Z,2.72
2022-12-08T13:35:20.871Z,2.60
2022-12-08T13:37:29.807Z,2.66
2022-12-08T13:39:40.621Z,2.61
2022-12-08T13:41:48.391Z,2.66
2022-12-08T13:44:50.882Z,2.62
2022-12-08T13:53:22.348Z,2.58
2022-12-08T13:57:05.592Z,2.48
2022-12-08T13:59:25.528Z,2.43
2022-12-08T14:01:27.666Z,2.53
2022-12-08T14:03:29.788Z,2.54
2022-12-08T14:06:11.209Z,2.49
2022-12-08T14:08:03.822Z,2.36
2022-12-08T14:10:15.920Z,2.45
2022-12-08T14:12:22.201Z,2.45
2022-12-08T14:14:53.904Z,2.44
2022-12-08T14:17:01.521Z,2.47
2022-12-08T14:19:06.854Z,2.41
2022-12-08T14:21:20.843Z,2.38
2022-12-08T14:23:23.210Z,2.38
2022-12-08T14:25:26.899Z,2.39
2022-12-08T14:27:32.684Z,2.38
2022-12-08T14:29:45.482Z,2.40
2022-12-08T14:31:47.376Z,2.05
2022-12-08T14:33:53.324Z,2.27
2022-12-08T14:35:58.437Z,2.48
2022-12-08T14:38:02.416Z,2.46
2022-12-08T14:40:22.974Z,2.42
2022-12-08T14:42:27.372Z,2.40
2022-12-08T14:44:32.984Z,2.45
2022-12-08T14:46:34.752Z,2.35
2022-12-08T14:48:36.481Z,2.39
2022-12-08T14:50:54.985Z,2.37
2022-12-08T14:52:56.808Z,2.00
2022-12-08T14:54:59.004Z,2.38
2022-12-08T14:57:02.583Z,2.56
2022-12-08T14:59:20.894Z,2.61
2022-12-08T15:01:23.854Z,2.37
2022-12-08T15:03:29.359Z,2.78
2022-12-08T15:05:32.585Z,2.81
2022-12-08T15:07:46.250Z,2.82
2022-12-08T15:10:18.509Z,2.79
2022-12-08T15:12:27.055Z,2.87
2022-12-08T15:14:35.840Z,2.88
2022-12-08T15:16:42.872Z,2.94
2022-12-08T15:18:44.815Z,2.76
2022-12-08T15:20:49.114Z,2.87
2022-12-08T15:22:51.408Z,2.69
2022-12-08T15:24:54.117Z,2.92
2022-12-08T15:26:56.305Z,2.94
2022-12-08T15:28:58.038Z,2.99
2022-12-08T15:30:59.893Z,2.98
2022-12-08T15:33:01.815Z,2.79
2022-12-08T15:35:03.615Z,2.63
2022-12-08T15:37:18.694Z,2.60
2022-12-08T15:39:36.335Z,2.61
2022-12-08T15:41:38.017Z,2.41
2022-12-08T15:43:40.094Z,2.31
2022-12-08T15:45:48.110Z,2.59
2022-12-08T15:47:56.873Z,2.66
2022-12-08T15:49:58.591Z,2.38
2022-12-08T15:52:11.191Z,2.11
2022-12-08T15:54:14.408Z,2.14
2022-12-08T15:56:27.379Z,1.95
2022-12-08T16:00:54.428Z,1.82
2022-12-08T16:05:42.313Z,1.99
2022-12-08T16:07:40.486Z,2.04
2022-12-08T16:09:44.078Z,1.92
2022-12-08T16:12:06.057Z,1.86
2022-12-08T16:14:54.689Z,1.67
2022-12-08T16:16:30.588Z,1.60
2022-12-08T16:18:36.499Z,1.19
2022-12-08T16:21:05.958Z,1.57
2022-12-08T16:23:13.471Z,1.53
2022-12-08T16:25:23.390Z,1.45
2022-12-08T16:28:00.063Z,1.38
2022-12-08T16:29:51.346Z,1.18
2022-12-08T16:31:53.176Z,1.33
2022-12-08T16:33:55.032Z,1.26
2022-12-08T16:35:57.050Z,1.32
2022-12-08T16:37:58.991Z,1.32
2022-12-08T16:40:01.071Z,1.29
2022-12-08T16:42:02.828Z,1.29
2022-12-08T16:44:05.654Z,1.32
2022-12-08T16:46:17.342Z,1.20
2022-12-08T16:48:19.043Z,1.27
2022-12-08T16:50:24.328Z,1.33
2022-12-08T16:52:26.091Z,1.32
2022-12-08T16:54:29.442Z,1.25
2022-12-08T16:56:33.536Z,1.29
2022-12-08T16:58:35.580Z,1.22
2022-12-08T17:00:37.489Z,1.26
2022-12-08T17:02:39.378Z,1.28
2022-12-08T17:04:41.409Z,1.34
2022-12-08T17:06:43.126Z,1.24
2022-12-08T17:08:45.660Z,1.18
2022-12-08T17:10:47.391Z,1.22
2022-12-08T17:12:50.168Z,1.21
2022-12-08T17:14:52.105Z,1.09
2022-12-08T17:16:54.093Z,1.26
2022-12-08T17:18:55.968Z,1.30
2022-12-08T17:20:57.779Z,1.15
2022-12-08T17:22:59.496Z,1.29
2022-12-08T17:25:02.527Z,1.31
2022-12-08T17:27:05.045Z,1.35
2022-12-08T17:29:06.736Z,1.12
2022-12-08T17:31:14.492Z,1.27
2022-12-08T17:33:16.391Z,1.09
2022-12-08T17:35:18.104Z,1.36
2022-12-08T17:37:19.791Z,1.42
2022-12-08T17:39:21.706Z,1.45
2022-12-08T17:41:23.429Z,1.38
2022-12-08T17:43:25.097Z,1.37
2022-12-08T17:45:27.100Z,1.36
2022-12-08T17:47:28.876Z,1.28
2022-12-08T17:49:31.472Z,1.04
2022-12-08T17:51:33.635Z,1.11
2022-12-08T17:53:37.544Z,1.26
2022-12-08T17:55:40.225Z,1.22
2022-12-08T17:57:42.084Z,1.25
2022-12-08T17:59:43.805Z,1.34
2022-12-08T18:01:45.660Z,1.27
2022-12-08T18:03:47.650Z,1.06
2022-12-08T18:05:49.370Z,1.12
2022-12-08T18:07:51.603Z,1.16
2022-12-08T18:09:53.550Z,1.13
2022-12-08T18:11:55.281Z,1.23
2022-12-08T18:13:57.557Z,1.15
2022-12-08T18:15:59.396Z,1.04
2022-12-08T18:18:01.090Z,1.26
2022-12-08T18:20:03.061Z,1.25
2022-12-08T18:22:05.250Z,1.23
2022-12-08T18:24:07.954Z,1.30
2022-12-08T18:26:12.343Z,1.30
2022-12-08T18:28:14.210Z,1.15
2022-12-08T18:30:17.843Z,0.94
2022-12-08T18:32:19.475Z,1.29
2022-12-08T18:34:21.296Z,1.22
2022-12-08T18:36:25.878Z,1.28
2022-12-08T18:38:27.571Z,1.31
2022-12-08T18:40:29.614Z,1.28
2022-12-08T18:42:31.321Z,1.22
2022-12-08T18:44:33.070Z,1.17
2022-12-08T18:46:35.012Z,1.28
2022-12-08T18:48:39.268Z,1.07
2022-12-08T18:50:41.776Z,1.18
2022-12-08T18:52:45.379Z,1.28
2022-12-08T18:55:05.760Z,1.09
2022-12-08T18:57:08.352Z,0.97
2022-12-08T18:59:12.319Z,1.04
2022-12-08T19:01:14.905Z,0.94
2022-12-08T19:03:16.619Z,1.06
2022-12-08T19:05:18.496Z,1.04
2022-12-08T19:07:20.206Z,1.08
2022-12-08T19:09:21.969Z,1.08
2022-12-08T19:11:30.732Z,1.08
2022-12-08T19:13:32.665Z,1.18
2022-12-08T19:15:34.857Z,1.08
2022-12-08T19:17:37.157Z,0.90
2022-12-08T19:19:38.825Z,1.09
2022-12-08T19:21:46.136Z,1.06
2022-12-08T19:23:48.520Z,0.96
2022-12-08T19:25:50.285Z,1.02
2022-12-08T19:27:52.018Z,1.05
2022-12-08T19:29:53.864Z,1.07
2022-12-08T19:31:55.812Z,1.06
2022-12-08T19:33:57.605Z,1.09
2022-12-08T19:35:59.845Z,1.21
2022-12-08T19:38:01.563Z,1.13
2022-12-08T19:40:04.147Z,1.14
2022-12-08T19:42:26.490Z,0.94
2022-12-08T19:44:29.018Z,1.15
2022-12-08T19:46:33.574Z,1.00
2022-12-08T19:48:38.045Z,1.08
2022-12-08T19:50:40.160Z,1.14
2022-12-08T19:52:42.265Z,1.05
2022-12-08T19:54:44.525Z,1.14
2022-12-08T19:56:46.274Z,1.27
2022-12-08T19:58:48.008Z,1.16
2022-12-08T20:00:50.171Z,1.27
2022-12-08T20:02:52.275Z,1.17
2022-12-08T20:04:54.014Z,1.11
2022-12-08T20:06:57.603Z,1.28
2022-12-08T20:08:59.221Z,1.18
2022-12-08T20:11:00.916Z,1.23
2022-12-08T20:13:03.678Z,0.98
2022-12-08T20:15:06.080Z,1.31
2022-12-08T20:17:08.494Z,1.21
2022-12-08T20:19:10.647Z,1.11
2022-12-08T20:21:12.459Z,1.04
2022-12-08T20:23:15.623Z,1.06
2022-12-08T20:25:17.707Z,1.00
2022-12-08T20:27:19.687Z,1.10
2022-12-08T20:29:21.507Z,1.15
2022-12-08T20:31:28.554Z,1.12
2022-12-08T20:33:30.342Z,1.13
2022-12-08T20:35:32.066Z,1.06
2022-12-08T20:37:33.765Z,0.85
2022-12-08T20:39:35.510Z,0.67
2022-12-08T20:41:39.311Z,0.92
2022-12-08T20:43:41.270Z,0.76
2022-12-08T20:45:43.142Z,0.73
2022-12-08T20:47:44.848Z,0.73
2022-12-08T20:49:47.782Z,0.73
2022-12-08T20:51:49.603Z,0.67
2022-12-08T20:53:51.305Z,0.77
2022-12-08T20:55:53.650Z,0.68
2022-12-08T20:57:55.675Z,0.60
2022-12-08T20:59:57.368Z,0.69
2022-12-08T21:01:59.730Z,0.71
2022-12-08T21:04:01.709Z,0.69
2022-12-08T21:06:03.837Z,0.69
2022-12-08T21:08:08.543Z,0.70
2022-12-08T21:10:11.008Z,0.45
2022-12-08T21:12:19.342Z,0.48
2022-12-08T21:14:21.386Z,0.31
2022-12-08T21:16:23.356Z,0.36
2022-12-08T21:18:25.709Z,0.45
2022-12-08T21:20:27.756Z,0.36
2022-12-08T21:22:29.490Z,0.51
2022-12-08T21:24:34.352Z,0.60
2022-12-08T21:26:36.641Z,0.46
2022-12-08T21:28:38.512Z,0.53
2022-12-08T21:30:41.212Z,0.68
2022-12-08T21:32:43.108Z,0.33
2022-12-08T21:34:45.262Z,0.45
2022-12-08T21:36:47.019Z,0.47
2022-12-08T21:38:49.353Z,0.57
2022-12-08T21:40:51.090Z,0.50
2022-12-08T21:42:53.370Z,0.50
2022-12-08T21:44:55.165Z,0.39
2022-12-08T21:46:57.110Z,0.43
2022-12-08T21:48:59.023Z,0.38
2022-12-08T21:51:05.403Z,0.31
2022-12-08T21:53:07.395Z,0.37
2022-12-08T21:55:11.024Z,0.39
2022-12-08T21:57:13.188Z,0.52
2022-12-08T21:59:15.802Z,0.37
2022-12-08T22:01:17.646Z,0.46
2022-12-08T22:03:20.119Z,0.20
2022-12-08T22:05:22.110Z,0.21
2022-12-08T22:07:24.105Z,0.32
2022-12-08T22:09:26.171Z,0.40
2022-12-08T22:11:28.307Z,0.38
2022-12-08T22:13:30.053Z,0.41
2022-12-08T22:15:31.982Z,0.29
2022-12-08T22:17:41.777Z,0.68
2022-12-08T22:19:43.664Z,0.85
2022-12-08T22:21:45.546Z,0.77
2022-12-08T22:23:47.494Z,0.97
2022-12-08T22:25:57.242Z,1.02
2022-12-08T22:27:59.018Z,1.01
2022-12-08T22:30:00.891Z,1.04
2022-12-08T22:32:02.949Z,1.18
2022-12-08T22:34:04.875Z,1.23
2022-12-08T22:36:11.024Z,1.33
2022-12-08T22:38:13.020Z,1.07
2022-12-08T22:40:14.992Z,1.00
2022-12-08T22:42:16.825Z,1.12
2022-12-08T22:44:18.558Z,1.06
2022-12-08T22:46:25.657Z,1.02
2022-12-08T22:48:27.661Z,0.94
2022-12-08T22:50:29.400Z,0.93
2022-12-08T22:52:31.581Z,0.89
2022-12-08T22:54:33.397Z,0.97
2022-12-08T22:56:35.179Z,1.02
2022-12-08T22:58:38.610Z,0.89
2022-12-08T23:00:40.556Z,0.95
2022-12-08T23:02:42.369Z,0.98
2022-12-08T23:04:44.739Z,1.02
2022-12-08T23:06:46.726Z,1.19
2022-12-08T23:08:48.478Z,1.11
2022-12-08T23:10:52.796Z,1.13
2022-12-08T23:12:56.808Z,1.28
2022-12-08T23:15:01.444Z,1.11
2022-12-08T23:17:03.672Z,1.15
2022-12-08T23:19:05.908Z,1.01
2022-12-08T23:21:13.534Z,1.06
2022-12-08T23:23:15.549Z,0.96
2022-12-08T23:25:17.521Z,0.76
2022-12-08T23:27:19.225Z,0.83
2022-12-08T23:31:40.425Z,0.70
2022-12-08T23:33:42.700Z,0.64
2022-12-08T23:35:44.795Z,0.35
2022-12-08T23:37:46.590Z,0.52
2022-12-08T23:39:48.463Z,0.37
2022-12-08T23:41:51.182Z,0.60
2022-12-08T23:43:53.301Z,0.71
2022-12-08T23:45:55.186Z,0.61
2022-12-08T23:47:56.978Z,0.69
2022-12-08T23:49:59.026Z,0.87
2022-12-08T23:52:00.809Z,1.01
2022-12-08T23:54:06.140Z,1.10
2022-12-08T23:56:11.193Z,1.12
2022-12-08T23:58:12.979Z,1.28
